Airfield :
LOGIN :

Register | Disclaimer

   EN    FR    IT 

 










Legend :    VFR   Marginal VFR   IFR   Intensive IFR   Very Intensive IFR
Visi :
Ceiling :
>= 8 km
>= 3000ft
5 to 8 km
1000 to 3000 ft
1500m to 5 km
500 to 1000 ft
800 to 1500m
200 to 500 ft
< 800m
< 200 ft
Symbols :   Thunderstorms  Fog  Heavy snow  Heavy precipitations  Wind > 20 kt
SIGMETs :     Misc.  Thunderstorms  Icing  Turbulence  Mountain Waves  Volcanic Ashes






- Airport Elevation : 156 ft
- IATA code : MLN


GEML - Melilla

CURRENT METAR :
  • 190400Z AUTO 06008KT 020V100 9999 SCT014 BKN028 OVC038 16/13 Q1028

EXPIRED METARs :
  • 190330Z AUTO 06007KT 020V100 9999 FEW013 BKN025 OVC036 16/13 Q1028
  • 190300Z AUTO 05008KT 010V100 9999 SCT012 BKN018 OVC041 16/13 Q1028
  • 190230Z AUTO 05007KT 020V090 9999 SCT011 BKN022 OVC043 16/13 Q1028
  • 190200Z AUTO 05007KT 9999 BKN012 BKN021 OVC042 16/13 Q1028
  • 190130Z AUTO 05005KT 010V090 9999 BKN011 BKN018 OVC039 16/13 Q1028

TAF TAF GEML
Valid from the 19 at 03:00 until the 20 at 03:00 UTC


190200Z 1903/2003 08006KT 9999 SCT010 BKN020 TX20/1914Z TN12/1907Z
PROB40
TEMPO 1903/1912 4000 DZ BKN010



MET'MAP, your aeronautical weather chart ! - Copyright ORBIFLY December 2007 - Disclaimer

ORBIFLY MET'MAP TEAM :

Programming & Development : Alexandra Zaïnal
Concept & original design : Baudouin d'Aumeries
Assistance for programming : Marc-Olivier Méhu
Technical & hardware support : Manuel Goepfert

Contact : metmap@orbifly.com




SOURCES & CREDITS :

   NOAA